createdAt,value
2023-02-23T00:02:08.406Z,7.32
2023-02-23T00:04:37.001Z,8.80
2023-02-23T00:07:06.427Z,7.57
2023-02-23T00:09:37.944Z,10.57
2023-02-23T00:12:09.794Z,10.20
2023-02-23T00:14:38.662Z,9.43
2023-02-23T00:17:14.278Z,9.23
2023-02-23T00:19:43.925Z,8.20
2023-02-23T00:22:12.788Z,10.63
2023-02-23T00:24:42.780Z,11.00
2023-02-23T00:27:13.126Z,8.57
2023-02-23T00:29:41.305Z,12.05
2023-02-23T00:32:09.274Z,9.75
2023-02-23T00:34:37.517Z,10.50
2023-02-23T00:37:05.600Z,9.63
2023-02-23T00:39:33.547Z,10.20
2023-02-23T00:42:03.489Z,11.07
2023-02-23T00:44:35.023Z,10.27
2023-02-23T00:47:04.214Z,9.10
2023-02-23T00:49:32.763Z,10.95
2023-02-23T00:52:04.640Z,9.35
2023-02-23T00:54:32.799Z,10.45
2023-02-23T00:57:00.566Z,7.72
2023-02-23T00:59:29.710Z,8.80
2023-02-23T01:01:57.628Z,9.05
2023-02-23T01:04:25.780Z,10.57
2023-02-23T01:06:53.723Z,8.60
2023-02-23T01:09:28.245Z,9.82
2023-02-23T01:11:57.258Z,12.20
2023-02-23T01:14:25.269Z,12.90
2023-02-23T01:16:53.071Z,12.48
2023-02-23T01:19:21.303Z,12.52
2023-02-23T01:21:50.006Z,11.13
2023-02-23T01:24:18.826Z,12.93
2023-02-23T01:26:46.895Z,8.90
2023-02-23T01:29:18.757Z,12.55
2023-02-23T01:31:48.952Z,13.15
2023-02-23T01:34:24.171Z,10.52
2023-02-23T01:36:52.336Z,12.43
2023-02-23T01:39:21.572Z,11.52
2023-02-23T01:41:51.965Z,11.57
2023-02-23T01:44:20.077Z,13.02
2023-02-23T01:46:49.705Z,11.45
2023-02-23T01:49:21.986Z,12.07
2023-02-23T01:52:07.545Z,13.48
2023-02-23T01:54:39.271Z,10.10
2023-02-23T01:57:12.370Z,11.80
2023-02-23T01:59:43.806Z,10.10
2023-02-23T02:02:13.602Z,13.60
2023-02-23T02:04:46.482Z,11.20
2023-02-23T02:07:18.874Z,11.30
2023-02-23T02:10:13.643Z,11.05
2023-02-23T02:12:49.167Z,10.50
2023-02-23T02:15:17.611Z,11.98
2023-02-23T02:18:18.603Z,9.35
2023-02-23T02:21:16.349Z,11.13
2023-02-23T02:24:16.312Z,10.32
2023-02-23T02:26:47.131Z,13.18
2023-02-23T02:29:28.807Z,11.77
2023-02-23T02:32:17.719Z,11.73
2023-02-23T02:35:32.095Z,11.27
2023-02-23T02:38:25.094Z,10.13
2023-02-23T02:41:04.389Z,11.63
2023-02-23T02:43:44.441Z,12.43
2023-02-23T02:46:20.191Z,11.35
2023-02-23T02:49:14.848Z,10.07
2023-02-23T02:54:37.013Z,11.13
2023-02-23T02:57:06.937Z,11.80
2023-02-23T03:00:06.972Z,12.85
2023-02-23T03:02:59.382Z,11.48
2023-02-23T03:05:58.986Z,16.50
2023-02-23T03:08:58.270Z,10.02
2023-02-23T03:11:54.145Z,9.82
2023-02-23T03:15:14.376Z,13.20
2023-02-23T03:18:05.311Z,11.38
2023-02-23T03:20:57.276Z,12.88
2023-02-23T03:24:12.968Z,13.52
2023-02-23T03:27:17.278Z,14.07
2023-02-23T03:33:18.312Z,12.65
2023-02-23T03:36:10.502Z,17.05
2023-02-23T03:39:12.214Z,13.23
2023-02-23T03:42:00.519Z,12.20
2023-02-23T03:44:57.462Z,14.05
2023-02-23T03:47:49.976Z,11.68
2023-02-23T03:50:50.609Z,11.85
2023-02-23T03:53:43.825Z,13.73
2023-02-23T03:56:33.180Z,14.60
2023-02-23T03:59:22.601Z,13.23
2023-02-23T04:02:13.092Z,13.13
2023-02-23T04:05:02.113Z,12.77
2023-02-23T04:07:49.374Z,14.40
2023-02-23T04:10:35.912Z,13.68
2023-02-23T04:13:16.799Z,13.00
2023-02-23T04:15:51.500Z,14.65
2023-02-23T04:18:30.827Z,13.00
2023-02-23T04:20:59.290Z,15.10
2023-02-23T04:23:28.166Z,14.45
2023-02-23T04:25:56.999Z,13.05
2023-02-23T04:28:27.044Z,13.10
2023-02-23T04:30:55.324Z,11.95
2023-02-23T04:33:25.498Z,15.02
2023-02-23T04:35:56.688Z,13.20
2023-02-23T04:38:24.800Z,15.05
2023-02-23T04:40:52.726Z,19.60
2023-02-23T04:43:20.640Z,14.05
2023-02-23T04:45:48.573Z,14.85
2023-02-23T04:48:16.259Z,17.02
2023-02-23T04:50:44.160Z,17.17
2023-02-23T04:53:12.062Z,15.52
2023-02-23T04:55:40.082Z,12.70
2023-02-23T04:58:13.626Z,13.40
2023-02-23T05:00:42.067Z,11.93
2023-02-23T05:03:10.768Z,13.85
2023-02-23T05:05:39.613Z,12.52
2023-02-23T05:08:07.430Z,11.90
2023-02-23T05:10:35.821Z,16.63
2023-02-23T05:13:03.519Z,13.85
2023-02-23T05:15:31.514Z,12.70
2023-02-23T05:17:59.252Z,10.88
2023-02-23T05:20:27.542Z,9.45
2023-02-23T05:22:55.258Z,11.65
2023-02-23T05:25:23.181Z,10.93
2023-02-23T05:27:51.285Z,12.77
2023-02-23T05:30:19.243Z,10.20
2023-02-23T05:32:46.886Z,9.68
2023-02-23T05:35:14.891Z,12.20
2023-02-23T05:37:42.480Z,10.63
2023-02-23T05:40:11.127Z,10.02
2023-02-23T05:42:38.845Z,9.90
2023-02-23T05:45:07.679Z,11.63
2023-02-23T05:47:38.790Z,11.73
2023-02-23T05:50:08.961Z,11.20
2023-02-23T05:52:41.530Z,8.63
2023-02-23T05:55:11.776Z,11.47
2023-02-23T05:57:41.220Z,10.15
2023-02-23T06:00:10.203Z,10.18
2023-02-23T06:02:37.963Z,11.60
2023-02-23T06:05:06.345Z,9.43
2023-02-23T06:07:34.050Z,12.95
2023-02-23T06:10:02.018Z,10.50
2023-02-23T06:12:29.670Z,9.30
2023-02-23T06:14:57.697Z,10.73
2023-02-23T06:17:25.614Z,11.02
2023-02-23T06:19:53.642Z,10.93
2023-02-23T06:22:21.252Z,9.23
2023-02-23T06:24:49.676Z,10.35
2023-02-23T06:27:17.379Z,10.40
2023-02-23T06:29:45.436Z,11.32
2023-02-23T06:32:13.211Z,12.88
2023-02-23T06:34:47.340Z,10.43
2023-02-23T06:37:15.243Z,16.25
2023-02-23T06:39:43.121Z,15.02
2023-02-23T06:42:10.774Z,16.20
2023-02-23T06:44:39.818Z,17.80
2023-02-23T06:47:07.501Z,13.13
2023-02-23T06:49:35.423Z,13.18
2023-02-23T06:52:03.135Z,8.98
2023-02-23T06:54:31.149Z,12.85
2023-02-23T06:56:59.002Z,13.75
2023-02-23T06:59:27.188Z,13.82
2023-02-23T07:01:54.891Z,12.45
2023-02-23T07:04:23.319Z,11.02
2023-02-23T07:06:51.606Z,12.38
2023-02-23T07:09:19.629Z,13.77
2023-02-23T07:11:47.378Z,14.32
2023-02-23T07:14:26.089Z,11.13
2023-02-23T07:16:54.787Z,10.38
2023-02-23T07:19:23.439Z,11.68
2023-02-23T07:21:51.111Z,9.85
2023-02-23T07:24:19.320Z,13.38
2023-02-23T07:26:47.450Z,12.82
2023-02-23T07:29:16.037Z,13.20
2023-02-23T07:31:43.727Z,7.90
2023-02-23T07:34:11.746Z,9.55
2023-02-23T07:36:39.668Z,12.43
2023-02-23T07:39:07.897Z,10.82
2023-02-23T07:41:35.628Z,10.88
2023-02-23T07:44:03.774Z,10.07
2023-02-23T07:46:31.527Z,9.55
2023-02-23T07:48:59.496Z,10.60
2023-02-23T07:51:27.133Z,11.95
2023-02-23T07:53:55.364Z,10.98
2023-02-23T07:56:23.085Z,10.60
2023-02-23T07:58:51.033Z,12.27
2023-02-23T08:01:19.147Z,10.65
2023-02-23T08:03:49.754Z,12.75
2023-02-23T08:06:19.520Z,9.40
2023-02-23T08:08:47.624Z,12.95
2023-02-23T08:11:15.891Z,12.18
2023-02-23T08:13:43.975Z,11.63
2023-02-23T08:16:12.614Z,10.38
2023-02-23T08:18:40.730Z,12.98
2023-02-23T08:21:08.594Z,14.25
2023-02-23T08:23:36.560Z,11.95
2023-02-23T08:26:05.270Z,14.27
2023-02-23T08:28:33.220Z,11.95
2023-02-23T08:31:01.109Z,15.60
2023-02-23T08:33:29.377Z,11.68
2023-02-23T08:35:59.748Z,14.38
2023-02-23T08:38:27.679Z,11.95
2023-02-23T08:40:55.347Z,12.32
2023-02-23T08:43:23.362Z,9.23
2023-02-23T08:45:51.102Z,12.00
2023-02-23T08:48:19.458Z,12.25
2023-02-23T08:50:49.921Z,12.63
2023-02-23T08:53:18.820Z,11.00
2023-02-23T08:55:46.566Z,12.93
2023-02-23T08:58:14.676Z,10.75
2023-02-23T09:00:42.344Z,11.32
2023-02-23T09:03:10.332Z,13.10
2023-02-23T09:05:38.945Z,11.68
2023-02-23T09:08:07.239Z,11.18
2023-02-23T09:10:35.833Z,9.45
2023-02-23T09:13:03.810Z,13.45
2023-02-23T09:15:31.538Z,11.85
2023-02-23T09:18:03.265Z,12.32
2023-02-23T09:20:31.499Z,11.82
2023-02-23T09:22:59.447Z,14.32
2023-02-23T09:25:29.253Z,12.75
2023-02-23T09:27:59.608Z,11.55
2023-02-23T09:30:28.077Z,13.05
2023-02-23T09:32:56.621Z,13.73
2023-02-23T09:35:25.377Z,13.32
2023-02-23T09:37:55.918Z,14.27
2023-02-23T09:40:30.366Z,15.02
2023-02-23T09:43:22.615Z,11.15
2023-02-23T09:46:08.257Z,16.42
2023-02-23T09:48:36.326Z,13.85
2023-02-23T09:51:09.370Z,14.65
2023-02-23T09:53:51.177Z,13.30
2023-02-23T09:56:29.991Z,14.80
2023-02-23T09:58:58.805Z,13.05
2023-02-23T10:01:32.418Z,13.95
2023-02-23T10:06:35.214Z,11.97
2023-02-23T10:09:54.416Z,13.73
2023-02-23T10:12:41.073Z,12.40
2023-02-23T10:15:27.960Z,11.65
2023-02-23T10:18:45.355Z,12.75
2023-02-23T10:21:20.098Z,12.05
2023-02-23T10:26:44.334Z,13.95
2023-02-23T10:29:35.178Z,14.68
2023-02-23T10:32:14.470Z,13.75
2023-02-23T10:34:44.082Z,12.65
2023-02-23T10:37:13.231Z,11.98
2023-02-23T10:39:42.206Z,11.32
2023-02-23T10:42:17.478Z,14.88
2023-02-23T10:44:46.598Z,13.20
2023-02-23T10:47:21.766Z,11.52
2023-02-23T10:49:51.923Z,14.45
2023-02-23T10:52:43.090Z,13.23
2023-02-23T10:55:32.185Z,11.98
2023-02-23T10:58:18.935Z,16.30
2023-02-23T11:01:01.338Z,13.88
2023-02-23T11:03:57.618Z,15.20
2023-02-23T11:06:31.083Z,13.27
2023-02-23T11:08:59.041Z,13.85
2023-02-23T11:11:29.161Z,12.23
2023-02-23T11:13:58.214Z,16.20
2023-02-23T11:16:39.590Z,16.65
2023-02-23T11:19:38.285Z,12.85
2023-02-23T11:22:07.083Z,12.32
2023-02-23T11:24:39.655Z,10.55
2023-02-23T11:27:21.018Z,14.30
2023-02-23T11:29:51.022Z,15.70
2023-02-23T11:32:22.866Z,11.80
2023-02-23T11:35:15.368Z,12.73
2023-02-23T11:37:43.137Z,13.63
2023-02-23T11:40:32.127Z,13.75
2023-02-23T11:43:07.349Z,15.55
2023-02-23T11:45:59.484Z,12.85
2023-02-23T11:48:48.514Z,9.40
2023-02-23T11:51:37.087Z,12.45
2023-02-23T11:54:07.200Z,14.45
2023-02-23T11:56:36.091Z,15.35
2023-02-23T11:59:08.391Z,14.60
2023-02-23T12:01:44.734Z,14.93
2023-02-23T12:04:30.772Z,16.23
2023-02-23T12:07:20.634Z,13.82
2023-02-23T12:09:57.377Z,13.45
2023-02-23T12:12:28.167Z,18.52
2023-02-23T12:15:27.516Z,14.57
2023-02-23T12:18:04.407Z,13.15
2023-02-23T12:20:39.027Z,14.40
2023-02-23T12:23:21.694Z,19.98
2023-02-23T12:26:01.625Z,14.88
2023-02-23T12:28:35.575Z,14.93
2023-02-23T12:31:25.871Z,14.68
2023-02-23T12:34:27.634Z,15.50
2023-02-23T12:37:12.461Z,14.18
2023-02-23T12:39:46.455Z,14.00
2023-02-23T12:42:40.217Z,12.63
2023-02-23T12:45:36.985Z,12.65
2023-02-23T12:48:42.876Z,13.98
2023-02-23T12:51:32.970Z,13.57
2023-02-23T12:54:00.829Z,13.55
2023-02-23T12:56:41.507Z,12.88
2023-02-23T12:59:33.344Z,12.80
2023-02-23T13:02:21.698Z,13.70
2023-02-23T13:05:19.575Z,12.98
2023-02-23T13:07:55.447Z,17.80
2023-02-23T13:10:40.290Z,12.90
2023-02-23T13:13:31.282Z,11.70
2023-02-23T13:16:14.149Z,10.73
2023-02-23T13:18:45.048Z,10.20
2023-02-23T13:21:23.946Z,13.23
2023-02-23T13:23:55.364Z,11.63
2023-02-23T13:26:36.610Z,10.38
2023-02-23T13:29:15.336Z,10.90
2023-02-23T13:31:43.681Z,14.25
2023-02-23T13:34:33.421Z,12.05
2023-02-23T13:37:05.183Z,10.70
2023-02-23T13:39:48.156Z,12.70
2023-02-23T13:42:46.037Z,11.60
2023-02-23T13:45:50.739Z,10.80
2023-02-23T13:48:35.135Z,9.93
2023-02-23T13:51:27.112Z,13.98
2023-02-23T13:54:06.704Z,11.02
2023-02-23T13:56:48.097Z,13.73
2023-02-23T13:59:21.830Z,10.70
2023-02-23T14:01:53.407Z,15.23
2023-02-23T14:04:27.460Z,12.13
2023-02-23T14:07:28.326Z,11.90
2023-02-23T14:10:07.534Z,11.52
2023-02-23T14:12:39.867Z,13.43
2023-02-23T14:15:27.503Z,12.48
2023-02-23T14:18:00.520Z,11.05
2023-02-23T14:20:52.917Z,14.65
2023-02-23T14:23:21.041Z,13.18
2023-02-23T14:26:17.724Z,13.35
2023-02-23T14:29:07.562Z,14.00
2023-02-23T14:31:35.959Z,14.45
2023-02-23T14:34:09.305Z,10.68
2023-02-23T14:36:43.937Z,12.53
2023-02-23T14:39:25.502Z,11.18
2023-02-23T14:41:59.984Z,11.38
2023-02-23T14:44:45.256Z,13.13
2023-02-23T14:47:17.707Z,13.07
2023-02-23T14:49:58.658Z,12.02
2023-02-23T14:52:36.785Z,13.07
2023-02-23T14:55:17.200Z,13.25
2023-02-23T14:57:45.285Z,14.23
2023-02-23T15:00:23.548Z,13.18
2023-02-23T15:03:12.478Z,14.30
2023-02-23T15:05:52.756Z,15.32
2023-02-23T15:08:24.991Z,12.52
2023-02-23T15:11:03.531Z,13.77
2023-02-23T15:13:40.019Z,15.20
2023-02-23T15:16:35.037Z,12.90
2023-02-23T15:19:05.215Z,15.00
2023-02-23T15:21:36.038Z,16.30
2023-02-23T15:24:21.423Z,17.95
2023-02-23T15:26:49.668Z,15.13
2023-02-23T15:29:20.518Z,17.40
2023-02-23T15:31:52.337Z,20.48
2023-02-23T15:34:26.583Z,16.60
2023-02-23T15:36:59.466Z,21.25
2023-02-23T15:39:53.346Z,17.83
2023-02-23T15:42:33.612Z,24.05
2023-02-23T15:45:04.542Z,17.00
2023-02-23T15:47:36.354Z,24.85
2023-02-23T15:50:20.089Z,20.38
2023-02-23T15:53:03.477Z,22.27
2023-02-23T15:55:37.098Z,25.42
2023-02-23T16:00:51.510Z,24.08
2023-02-23T16:03:31.658Z,30.52
2023-02-23T16:06:09.055Z,26.75
2023-02-23T16:08:37.249Z,28.10
2023-02-23T16:11:16.229Z,25.13
2023-02-23T16:13:45.990Z,29.63
2023-02-23T16:16:20.538Z,30.33
2023-02-23T16:18:54.777Z,28.65
2023-02-23T16:21:25.303Z,37.15
2023-02-23T16:23:55.500Z,54.17
2023-02-23T16:26:34.619Z,45.05
2023-02-23T16:29:04.728Z,49.33
2023-02-23T16:31:47.665Z,43.05
2023-02-23T16:34:35.756Z,43.87
2023-02-23T16:37:19.756Z,36.33
2023-02-23T16:39:48.251Z,35.70
2023-02-23T16:42:32.352Z,38.85
2023-02-23T16:45:01.045Z,30.48
2023-02-23T16:47:49.393Z,36.28
2023-02-23T16:50:24.318Z,38.13
2023-02-23T16:52:53.805Z,32.50
2023-02-23T16:55:26.233Z,42.63
2023-02-23T16:58:07.792Z,34.55
2023-02-23T17:00:35.761Z,37.85
2023-02-23T17:03:06.271Z,40.70
2023-02-23T17:05:34.477Z,41.20
2023-02-23T17:08:02.106Z,42.15
2023-02-23T17:10:35.223Z,40.95
2023-02-23T17:13:12.743Z,41.08
2023-02-23T17:15:48.157Z,41.70
2023-02-23T17:18:15.954Z,42.35
2023-02-23T17:20:44.048Z,41.08
2023-02-23T17:23:11.822Z,42.30
2023-02-23T17:25:39.715Z,46.13
2023-02-23T17:28:07.392Z,44.60
2023-02-23T17:30:36.463Z,46.95
2023-02-23T17:33:05.367Z,43.75
2023-02-23T17:35:37.300Z,51.75
2023-02-23T17:38:06.601Z,49.85
2023-02-23T17:40:36.578Z,52.47
2023-02-23T17:43:09.759Z,56.80
2023-02-23T17:45:37.678Z,62.35
2023-02-23T17:48:05.650Z,58.53
2023-02-23T17:50:33.718Z,48.60
2023-02-23T17:53:01.457Z,41.85
2023-02-23T17:55:29.462Z,49.20
2023-02-23T17:57:57.055Z,50.67
2023-02-23T18:00:25.253Z,47.20
2023-02-23T18:02:53.001Z,45.53
2023-02-23T18:05:21.695Z,40.60
2023-02-23T18:07:49.400Z,44.30
2023-02-23T18:10:17.945Z,36.30
2023-02-23T18:12:45.745Z,37.75
2023-02-23T18:15:13.968Z,31.80
2023-02-23T18:17:41.726Z,34.75
2023-02-23T18:20:14.074Z,35.05
2023-02-23T18:22:43.124Z,31.40
2023-02-23T18:25:21.628Z,33.35
2023-02-23T18:27:51.322Z,35.88
2023-02-23T18:30:19.703Z,33.00
2023-02-23T18:32:48.208Z,33.53
2023-02-23T18:35:16.417Z,32.08
2023-02-23T18:37:44.218Z,33.90
2023-02-23T18:40:21.503Z,33.25
2023-02-23T18:42:49.556Z,33.08
2023-02-23T18:45:17.963Z,36.50
2023-02-23T18:47:45.603Z,33.25
2023-02-23T18:50:19.439Z,31.38
2023-02-23T18:55:22.382Z,32.80
2023-02-23T18:57:52.725Z,34.38
2023-02-23T19:00:21.249Z,30.77
2023-02-23T19:02:49.522Z,27.05
2023-02-23T19:05:20.741Z,27.13
2023-02-23T19:07:49.364Z,28.77
2023-02-23T19:10:17.396Z,28.42
2023-02-23T19:12:45.183Z,24.65
2023-02-23T19:15:13.531Z,24.88
2023-02-23T19:17:41.344Z,32.20
2023-02-23T19:20:16.063Z,28.10
2023-02-23T19:22:44.078Z,28.50
2023-02-23T19:25:14.540Z,26.23
2023-02-23T19:27:42.800Z,25.75
2023-02-23T19:30:12.133Z,24.98
2023-02-23T19:32:40.031Z,23.55
2023-02-23T19:35:10.863Z,28.05
2023-02-23T19:37:40.067Z,24.75
2023-02-23T19:40:08.945Z,23.98
2023-02-23T19:42:37.046Z,31.58
2023-02-23T19:45:05.382Z,26.88
2023-02-23T19:47:33.119Z,25.70
2023-02-23T19:50:01.129Z,25.73
2023-02-23T19:52:30.804Z,34.85
2023-02-23T19:54:59.049Z,24.88
2023-02-23T19:57:28.201Z,27.17
2023-02-23T19:59:56.173Z,27.02
2023-02-23T20:02:24.063Z,27.00
2023-02-23T20:04:52.243Z,27.83
2023-02-23T20:07:20.166Z,27.83
2023-02-23T20:09:48.242Z,28.95
2023-02-23T20:12:15.919Z,26.20
2023-02-23T20:14:44.952Z,28.90
2023-02-23T20:17:13.906Z,26.65
2023-02-23T20:19:41.984Z,29.42
2023-02-23T20:22:09.862Z,31.30
2023-02-23T20:24:37.922Z,30.23
2023-02-23T20:27:05.617Z,30.77
2023-02-23T20:29:34.308Z,28.75
2023-02-23T20:32:03.585Z,29.67
2023-02-23T20:34:31.964Z,37.83
2023-02-23T20:36:59.803Z,29.08
2023-02-23T20:39:27.932Z,33.97
2023-02-23T20:41:55.651Z,30.23
2023-02-23T20:44:24.787Z,29.40
2023-02-23T20:46:52.522Z,34.42
2023-02-23T20:49:22.746Z,34.85
2023-02-23T20:51:50.767Z,35.92
2023-02-23T20:54:19.017Z,34.38
2023-02-23T20:56:58.821Z,36.58
2023-02-23T20:59:31.025Z,37.90
2023-02-23T21:02:01.580Z,37.45
2023-02-23T21:04:29.713Z,41.53
2023-02-23T21:06:58.602Z,41.25
2023-02-23T21:09:26.660Z,45.08
2023-02-23T21:11:55.004Z,46.40
2023-02-23T21:14:23.433Z,48.05
2023-02-23T21:16:51.205Z,45.72
2023-02-23T21:19:22.740Z,46.88
2023-02-23T21:21:57.958Z,42.97
2023-02-23T21:24:26.907Z,50.97
2023-02-23T21:26:54.649Z,43.60
2023-02-23T21:29:24.058Z,46.33
2023-02-23T21:31:52.627Z,51.05
2023-02-23T21:34:20.765Z,51.33
2023-02-23T21:36:49.994Z,50.55
2023-02-23T21:39:17.990Z,48.97
2023-02-23T21:41:45.597Z,50.40
2023-02-23T21:44:13.514Z,50.45
2023-02-23T21:46:41.194Z,49.38
2023-02-23T21:49:09.961Z,52.75
2023-02-23T21:51:37.948Z,50.15
2023-02-23T21:54:06.470Z,52.17
2023-02-23T21:56:34.982Z,50.33
2023-02-23T21:59:08.295Z,52.47
2023-02-23T22:01:38.446Z,50.03
2023-02-23T22:04:08.334Z,48.53
2023-02-23T22:06:41.568Z,58.60
2023-02-23T22:09:11.532Z,43.13
2023-02-23T22:11:43.072Z,53.15
2023-02-23T22:14:11.516Z,42.95
2023-02-23T22:16:43.536Z,49.08
2023-02-23T22:19:12.947Z,52.92
2023-02-23T22:21:42.317Z,47.20
2023-02-23T22:24:13.788Z,52.05
2023-02-23T22:26:54.066Z,49.08
2023-02-23T22:29:26.290Z,52.08
2023-02-23T22:31:54.283Z,55.63
2023-02-23T22:34:22.427Z,49.38
2023-02-23T22:36:50.613Z,56.65
2023-02-23T22:39:18.959Z,50.05
2023-02-23T22:41:48.085Z,53.30
2023-02-23T22:44:18.780Z,53.13
2023-02-23T22:46:48.612Z,55.80
2023-02-23T22:49:19.969Z,52.95
2023-02-23T22:51:48.377Z,54.42
2023-02-23T22:54:17.515Z,57.30
2023-02-23T22:56:46.926Z,51.83
2023-02-23T22:59:17.504Z,53.80
2023-02-23T23:01:45.304Z,58.08
2023-02-23T23:04:14.933Z,56.90
2023-02-23T23:06:43.884Z,57.45
2023-02-23T23:09:13.204Z,55.63
2023-02-23T23:11:41.834Z,59.40
2023-02-23T23:14:11.284Z,51.42
2023-02-23T23:16:52.514Z,60.55
2023-02-23T23:19:26.542Z,59.65
2023-02-23T23:21:56.046Z,61.15
2023-02-23T23:24:25.527Z,54.50
2023-02-23T23:27:00.115Z,57.17
2023-02-23T23:29:32.513Z,57.53
2023-02-23T23:32:02.693Z,61.15
2023-02-23T23:34:33.533Z,55.97
2023-02-23T23:37:02.888Z,60.60
2023-02-23T23:39:31.136Z,55.22
2023-02-23T23:42:01.801Z,53.92
2023-02-23T23:44:29.993Z,58.55
2023-02-23T23:46:58.429Z,54.70
2023-02-23T23:49:26.794Z,56.45
2023-02-23T23:51:56.664Z,54.75
2023-02-23T23:54:34.727Z,59.50
2023-02-23T23:57:02.549Z,58.10
2023-02-23T23:59:31.806Z,58.30
